sensor_id;sensor_type;location;lat;lon;timestamp;pressure;altitude;pressure_sealevel;temperature;humidity
36512;BME280;74732;46.796;9.822;2024-02-23T00:02:23;82705.89;;;16.78;18.54
36512;BME280;74732;46.796;9.822;2024-02-23T00:04:50;82703.60;;;16.32;18.56
36512;BME280;74732;46.796;9.822;2024-02-23T00:07:17;82707.19;;;15.90;18.51
36512;BME280;74732;46.796;9.822;2024-02-23T00:09:45;82711.97;;;16.76;18.54
36512;BME280;74732;46.796;9.822;2024-02-23T00:12:12;82715.80;;;16.41;18.51
36512;BME280;74732;46.796;9.822;2024-02-23T00:14:40;82717.60;;;16.92;18.44
36512;BME280;74732;46.796;9.822;2024-02-23T00:17:07;82725.48;;;16.76;18.53
36512;BME280;74732;46.796;9.822;2024-02-23T00:19:34;82725.26;;;16.82;18.50
36512;BME280;74732;46.796;9.822;2024-02-23T00:22:02;82729.74;;;16.81;18.51
36512;BME280;74732;46.796;9.822;2024-02-23T00:24:30;82726.69;;;16.50;18.67
36512;BME280;74732;46.796;9.822;2024-02-23T00:26:57;82727.47;;;16.38;18.74
36512;BME280;74732;46.796;9.822;2024-02-23T00:29:25;82729.52;;;16.51;18.67
36512;BME280;74732;46.796;9.822;2024-02-23T00:31:51;82729.78;;;16.11;18.64
36512;BME280;74732;46.796;9.822;2024-02-23T00:34:19;82733.04;;;15.87;18.79
36512;BME280;74732;46.796;9.822;2024-02-23T00:36:46;82732.80;;;16.31;18.78
36512;BME280;74732;46.796;9.822;2024-02-23T00:39:13;82736.57;;;16.22;18.82
36512;BME280;74732;46.796;9.822;2024-02-23T00:41:40;82743.10;;;16.22;18.83
36512;BME280;74732;46.796;9.822;2024-02-23T00:44:08;82737.30;;;15.86;18.79
36512;BME280;74732;46.796;9.822;2024-02-23T00:46:35;82738.50;;;16.36;18.74
36512;BME280;74732;46.796;9.822;2024-02-23T00:49:02;82739.33;;;15.78;18.81
36512;BME280;74732;46.796;9.822;2024-02-23T00:51:30;82743.61;;;16.23;18.79
36512;BME280;74732;46.796;9.822;2024-02-23T00:53:57;82741.19;;;16.24;18.79
36512;BME280;74732;46.796;9.822;2024-02-23T00:56:25;82736.57;;;16.15;18.83
36512;BME280;74732;46.796;9.822;2024-02-23T00:58:52;82732.57;;;16.02;18.89
36512;BME280;74732;46.796;9.822;2024-02-23T01:01:20;82740.67;;;15.84;18.98
36512;BME280;74732;46.796;9.822;2024-02-23T01:03:48;82738.98;;;15.50;18.90
36512;BME280;74732;46.796;9.822;2024-02-23T01:06:15;82731.04;;;16.39;18.92
36512;BME280;74732;46.796;9.822;2024-02-23T01:08:43;82733.96;;;15.80;18.97
36512;BME280;74732;46.796;9.822;2024-02-23T01:11:22;82739.21;;;15.89;18.92
36512;BME280;74732;46.796;9.822;2024-02-23T01:13:49;82735.96;;;15.74;18.98
36512;BME280;74732;46.796;9.822;2024-02-23T01:16:17;82738.11;;;15.64;19.04
36512;BME280;74732;46.796;9.822;2024-02-23T01:18:46;82738.40;;;15.76;18.97
36512;BME280;74732;46.796;9.822;2024-02-23T01:21:14;82737.18;;;15.78;18.95
36512;BME280;74732;46.796;9.822;2024-02-23T01:23:43;82735.71;;;15.87;18.87
36512;BME280;74732;46.796;9.822;2024-02-23T01:26:11;82734.84;;;15.91;18.85
36512;BME280;74732;46.796;9.822;2024-02-23T01:28:40;82729.44;;;15.74;18.94
36512;BME280;74732;46.796;9.822;2024-02-23T01:31:09;82725.24;;;15.88;18.85
36512;BME280;74732;46.796;9.822;2024-02-23T01:33:38;82723.17;;;16.29;18.89
36512;BME280;74732;46.796;9.822;2024-02-23T01:36:07;82722.22;;;15.70;18.92
36512;BME280;74732;46.796;9.822;2024-02-23T01:38:35;82723.65;;;15.67;18.93
36512;BME280;74732;46.796;9.822;2024-02-23T01:41:04;82725.20;;;15.95;19.04
36512;BME280;74732;46.796;9.822;2024-02-23T01:43:32;82726.46;;;15.50;19.02
36512;BME280;74732;46.796;9.822;2024-02-23T01:46:01;82724.27;;;16.50;18.96
36512;BME280;74732;46.796;9.822;2024-02-23T01:48:29;82720.79;;;15.93;19.04
36512;BME280;74732;46.796;9.822;2024-02-23T01:50:58;82718.45;;;15.92;19.04
36512;BME280;74732;46.796;9.822;2024-02-23T01:53:26;82715.47;;;15.55;18.96
36512;BME280;74732;46.796;9.822;2024-02-23T01:55:56;82713.55;;;15.48;18.99
36512;BME280;74732;46.796;9.822;2024-02-23T01:58:25;82706.41;;;15.50;18.97
36512;BME280;74732;46.796;9.822;2024-02-23T02:00:54;82706.06;;;15.36;19.04
36512;BME280;74732;46.796;9.822;2024-02-23T02:03:23;82703.68;;;15.49;18.96
36512;BME280;74732;46.796;9.822;2024-02-23T02:05:51;82699.35;;;15.45;18.99
36512;BME280;74732;46.796;9.822;2024-02-23T02:08:21;82698.68;;;15.96;18.96
36512;BME280;74732;46.796;9.822;2024-02-23T02:10:49;82699.64;;;16.48;18.89
36512;BME280;74732;46.796;9.822;2024-02-23T02:13:18;82699.49;;;16.32;18.96
36512;BME280;74732;46.796;9.822;2024-02-23T02:15:46;82698.59;;;15.53;18.89
36512;BME280;74732;46.796;9.822;2024-02-23T02:18:14;82695.73;;;15.64;18.83
36512;BME280;74732;46.796;9.822;2024-02-23T02:20:51;82695.10;;;15.52;18.88
36512;BME280;74732;46.796;9.822;2024-02-23T02:23:21;82692.88;;;16.01;18.89
36512;BME280;74732;46.796;9.822;2024-02-23T02:25:53;82688.91;;;15.37;18.95
36512;BME280;74732;46.796;9.822;2024-02-23T02:28:22;82689.54;;;15.48;18.89
36512;BME280;74732;46.796;9.822;2024-02-23T02:30:51;82688.85;;;15.61;18.82
36512;BME280;74732;46.796;9.822;2024-02-23T02:33:21;82688.54;;;15.16;18.82
36512;BME280;74732;46.796;9.822;2024-02-23T02:35:50;82687.25;;;15.57;18.83
36512;BME280;74732;46.796;9.822;2024-02-23T02:38:18;82682.14;;;15.88;18.93
36512;BME280;74732;46.796;9.822;2024-02-23T02:40:46;82681.04;;;16.30;18.91
36512;BME280;74732;46.796;9.822;2024-02-23T02:43:14;82679.91;;;15.79;18.97
36512;BME280;74732;46.796;9.822;2024-02-23T02:45:41;82672.42;;;15.29;18.97
36512;BME280;74732;46.796;9.822;2024-02-23T02:48:09;82671.58;;;16.10;19.02
36512;BME280;74732;46.796;9.822;2024-02-23T02:50:36;82673.33;;;15.95;18.88
36512;BME280;74732;46.796;9.822;2024-02-23T02:53:04;82671.24;;;16.00;18.82
36512;BME280;74732;46.796;9.822;2024-02-23T02:55:31;82670.57;;;15.58;18.78
36512;BME280;74732;46.796;9.822;2024-02-23T02:57:59;82665.92;;;15.51;18.81
36512;BME280;74732;46.796;9.822;2024-02-23T03:00:27;82663.75;;;15.58;18.77
36512;BME280;74732;46.796;9.822;2024-02-23T03:02:55;82661.73;;;15.54;18.79
36512;BME280;74732;46.796;9.822;2024-02-23T03:05:23;82658.87;;;15.91;18.85
36512;BME280;74732;46.796;9.822;2024-02-23T03:07:50;82656.82;;;15.76;18.94
36512;BME280;74732;46.796;9.822;2024-02-23T03:10:18;82658.57;;;16.19;18.92
36512;BME280;74732;46.796;9.822;2024-02-23T03:12:45;82652.79;;;15.35;18.89
36512;BME280;74732;46.796;9.822;2024-02-23T03:15:13;82653.56;;;16.27;18.84
36512;BME280;74732;46.796;9.822;2024-02-23T03:17:40;82653.78;;;15.18;18.98
36512;BME280;74732;46.796;9.822;2024-02-23T03:20:10;82647.92;;;15.63;18.99
36512;BME280;74732;46.796;9.822;2024-02-23T03:22:38;82650.28;;;15.22;18.94
36512;BME280;74732;46.796;9.822;2024-02-23T03:25:06;82653.13;;;16.07;18.97
36512;BME280;74732;46.796;9.822;2024-02-23T03:27:35;82651.85;;;15.78;18.90
36512;BME280;74732;46.796;9.822;2024-02-23T03:30:03;82651.84;;;15.08;19.01
36512;BME280;74732;46.796;9.822;2024-02-23T03:32:31;82648.36;;;15.66;18.96
36512;BME280;74732;46.796;9.822;2024-02-23T03:34:59;82650.57;;;16.32;18.82
36512;BME280;74732;46.796;9.822;2024-02-23T03:37:27;82645.30;;;16.06;18.72
36512;BME280;74732;46.796;9.822;2024-02-23T03:39:55;82641.24;;;15.84;18.84
36512;BME280;74732;46.796;9.822;2024-02-23T03:42:23;82640.24;;;15.30;18.86
36512;BME280;74732;46.796;9.822;2024-02-23T03:44:52;82628.32;;;15.36;18.81
36512;BME280;74732;46.796;9.822;2024-02-23T03:47:21;82626.60;;;15.28;18.85
36512;BME280;74732;46.796;9.822;2024-02-23T03:49:48;82625.69;;;16.37;18.78
36512;BME280;74732;46.796;9.822;2024-02-23T03:52:16;82633.04;;;15.57;18.69
36512;BME280;74732;46.796;9.822;2024-02-23T03:54:43;82634.34;;;15.34;18.82
36512;BME280;74732;46.796;9.822;2024-02-23T03:57:11;82635.62;;;15.47;18.75
36512;BME280;74732;46.796;9.822;2024-02-23T03:59:38;82638.37;;;16.07;18.69
36512;BME280;74732;46.796;9.822;2024-02-23T04:02:06;82643.09;;;16.42;18.72
36512;BME280;74732;46.796;9.822;2024-02-23T04:04:34;82641.38;;;15.41;18.76
36512;BME280;74732;46.796;9.822;2024-02-23T04:07:01;82639.85;;;15.43;18.75
36512;BME280;74732;46.796;9.822;2024-02-23T04:09:29;82638.56;;;15.47;18.72
36512;BME280;74732;46.796;9.822;2024-02-23T04:11:56;82635.09;;;15.44;18.73
36512;BME280;74732;46.796;9.822;2024-02-23T04:14:24;82633.31;;;15.45;18.73
36512;BME280;74732;46.796;9.822;2024-02-23T04:16:52;82634.36;;;15.99;18.71
36512;BME280;74732;46.796;9.822;2024-02-23T04:19:19;82632.97;;;15.44;18.74
36512;BME280;74732;46.796;9.822;2024-02-23T04:21:47;82629.08;;;15.30;18.81
36512;BME280;74732;46.796;9.822;2024-02-23T04:24:15;82629.86;;;15.32;18.80
36512;BME280;74732;46.796;9.822;2024-02-23T04:26:42;82634.93;;;15.89;18.76
36512;BME280;74732;46.796;9.822;2024-02-23T04:29:09;82633.98;;;15.36;18.77
36512;BME280;74732;46.796;9.822;2024-02-23T04:31:37;82632.22;;;15.48;18.72
36512;BME280;74732;46.796;9.822;2024-02-23T04:34:05;82632.06;;;15.56;18.67
36512;BME280;74732;46.796;9.822;2024-02-23T04:36:32;82631.06;;;15.39;18.76
36512;BME280;74732;46.796;9.822;2024-02-23T04:39:00;82628.50;;;15.39;18.76
36512;BME280;74732;46.796;9.822;2024-02-23T04:41:27;82632.54;;;16.29;18.76
36512;BME280;74732;46.796;9.822;2024-02-23T04:43:55;82637.87;;;15.39;18.76
36512;BME280;74732;46.796;9.822;2024-02-23T04:46:23;82638.03;;;15.65;18.62
36512;BME280;74732;46.796;9.822;2024-02-23T04:48:49;82634.07;;;15.52;18.69
36512;BME280;74732;46.796;9.822;2024-02-23T04:51:16;82632.11;;;15.65;18.61
36512;BME280;74732;46.796;9.822;2024-02-23T04:53:44;82634.88;;;15.65;18.61
36512;BME280;74732;46.796;9.822;2024-02-23T04:56:11;82634.92;;;15.71;18.58
36512;BME280;74732;46.796;9.822;2024-02-23T04:58:38;82629.58;;;16.68;18.55
36512;BME280;74732;46.796;9.822;2024-02-23T05:01:06;82629.32;;;15.53;18.67
36512;BME280;74732;46.796;9.822;2024-02-23T05:03:33;82626.21;;;15.46;18.71
36512;BME280;74732;46.796;9.822;2024-02-23T05:06:02;82627.45;;;15.62;18.62
36512;BME280;74732;46.796;9.822;2024-02-23T05:08:29;82624.87;;;15.79;18.53
36512;BME280;74732;46.796;9.822;2024-02-23T05:10:57;82629.21;;;15.70;18.57
36512;BME280;74732;46.796;9.822;2024-02-23T05:13:25;82624.59;;;15.75;18.54
36512;BME280;74732;46.796;9.822;2024-02-23T05:15:55;82623.14;;;15.67;18.58
36512;BME280;74732;46.796;9.822;2024-02-23T05:18:22;82618.88;;;16.11;18.63
36512;BME280;74732;46.796;9.822;2024-02-23T05:20:49;82617.72;;;15.94;18.44
36512;BME280;74732;46.796;9.822;2024-02-23T05:23:16;82617.74;;;16.41;18.45
36512;BME280;74732;46.796;9.822;2024-02-23T05:25:44;82624.09;;;16.07;18.37
36512;BME280;74732;46.796;9.822;2024-02-23T05:28:11;82611.43;;;15.97;18.42
36512;BME280;74732;46.796;9.822;2024-02-23T05:30:38;82609.11;;;15.94;18.46
36512;BME280;74732;46.796;9.822;2024-02-23T05:33:06;82615.05;;;15.81;18.50
36512;BME280;74732;46.796;9.822;2024-02-23T05:35:33;82609.60;;;15.82;18.49
36512;BME280;74732;46.796;9.822;2024-02-23T05:38:00;82608.48;;;15.87;18.48
36512;BME280;74732;46.796;9.822;2024-02-23T05:40:27;82603.86;;;15.69;18.56
36512;BME280;74732;46.796;9.822;2024-02-23T05:42:54;82596.78;;;15.74;18.53
36512;BME280;74732;46.796;9.822;2024-02-23T05:45:21;82606.90;;;15.86;18.45
36512;BME280;74732;46.796;9.822;2024-02-23T05:47:49;82604.63;;;15.77;18.51
36512;BME280;74732;46.796;9.822;2024-02-23T05:50:16;82608.86;;;15.80;18.48
36512;BME280;74732;46.796;9.822;2024-02-23T05:52:43;82602.93;;;16.62;18.53
36512;BME280;74732;46.796;9.822;2024-02-23T05:55:11;82601.45;;;15.72;18.53
36512;BME280;74732;46.796;9.822;2024-02-23T05:57:39;82598.58;;;15.70;18.57
36512;BME280;74732;46.796;9.822;2024-02-23T06:00:07;82603.82;;;16.20;18.54
36512;BME280;74732;46.796;9.822;2024-02-23T06:02:34;82604.87;;;15.59;18.59
36512;BME280;74732;46.796;9.822;2024-02-23T06:05:01;82611.39;;;16.74;18.47
36512;BME280;74732;46.796;9.822;2024-02-23T06:07:29;82601.77;;;15.84;18.45
36512;BME280;74732;46.796;9.822;2024-02-23T06:09:55;82597.91;;;15.71;18.53
36512;BME280;74732;46.796;9.822;2024-02-23T06:12:23;82597.43;;;15.92;18.41
36512;BME280;74732;46.796;9.822;2024-02-23T06:14:51;82602.74;;;15.81;18.48
36512;BME280;74732;46.796;9.822;2024-02-23T06:17:18;82603.84;;;15.81;18.47
36512;BME280;74732;46.796;9.822;2024-02-23T06:19:45;82614.84;;;16.18;18.53
36512;BME280;74732;46.796;9.822;2024-02-23T06:22:13;82618.46;;;15.68;18.55
36512;BME280;74732;46.796;9.822;2024-02-23T06:24:41;82618.80;;;15.61;18.58
36512;BME280;74732;46.796;9.822;2024-02-23T06:27:08;82614.35;;;15.65;18.56
36512;BME280;74732;46.796;9.822;2024-02-23T06:29:35;82614.91;;;16.22;18.53
36512;BME280;74732;46.796;9.822;2024-02-23T06:32:02;82613.97;;;15.72;18.58
36512;BME280;74732;46.796;9.822;2024-02-23T06:34:30;82617.96;;;15.84;18.57
36512;BME280;74732;46.796;9.822;2024-02-23T06:36:56;82614.24;;;15.96;18.57
36512;BME280;74732;46.796;9.822;2024-02-23T06:39:23;82613.45;;;15.71;18.85
36512;BME280;74732;46.796;9.822;2024-02-23T06:41:51;82619.34;;;16.42;18.96
36512;BME280;74732;46.796;9.822;2024-02-23T06:44:19;82622.01;;;15.64;18.92
36512;BME280;74732;46.796;9.822;2024-02-23T06:46:46;82625.52;;;15.67;18.92
36512;BME280;74732;46.796;9.822;2024-02-23T06:49:13;82621.21;;;16.57;18.98
36512;BME280;74732;46.796;9.822;2024-02-23T06:51:40;82615.35;;;15.47;19.11
36512;BME280;74732;46.796;9.822;2024-02-23T06:54:07;82612.85;;;15.62;19.04
36512;BME280;74732;46.796;9.822;2024-02-23T06:56:35;82603.10;;;16.06;19.07
36512;BME280;74732;46.796;9.822;2024-02-23T06:59:02;82594.36;;;15.60;19.02
36512;BME280;74732;46.796;9.822;2024-02-23T07:01:29;82574.66;;;15.34;19.17
36512;BME280;74732;46.796;9.822;2024-02-23T07:03:57;82575.82;;;16.29;19.15
36512;BME280;74732;46.796;9.822;2024-02-23T07:06:24;82577.54;;;16.30;19.10
36512;BME280;74732;46.796;9.822;2024-02-23T07:08:51;82582.36;;;16.18;19.19
36512;BME280;74732;46.796;9.822;2024-02-23T07:11:19;82594.59;;;15.28;19.16
36512;BME280;74732;46.796;9.822;2024-02-23T07:13:47;82606.77;;;15.78;19.17
36512;BME280;74732;46.796;9.822;2024-02-23T07:16:14;82610.56;;;16.13;19.19
36512;BME280;74732;46.796;9.822;2024-02-23T07:18:42;82603.81;;;15.53;19.44
36512;BME280;74732;46.796;9.822;2024-02-23T07:21:12;82596.20;;;15.55;19.73
36512;BME280;74732;46.796;9.822;2024-02-23T07:23:40;82599.77;;;15.40;20.03
36512;BME280;74732;46.796;9.822;2024-02-23T07:26:07;82603.31;;;15.49;21.35
36512;BME280;74732;46.796;9.822;2024-02-23T07:28:36;82600.74;;;15.67;21.47
36512;BME280;74732;46.796;9.822;2024-02-23T07:31:03;82601.45;;;15.46;21.60
36512;BME280;74732;46.796;9.822;2024-02-23T07:33:31;82601.45;;;16.03;21.91
36512;BME280;74732;46.796;9.822;2024-02-23T07:35:58;82600.80;;;16.41;21.97
36512;BME280;74732;46.796;9.822;2024-02-23T07:38:26;82606.29;;;16.48;22.29
36512;BME280;74732;46.796;9.822;2024-02-23T07:40:53;82603.25;;;16.62;22.35
36512;BME280;74732;46.796;9.822;2024-02-23T07:43:21;82600.05;;;16.62;23.04
36512;BME280;74732;46.796;9.822;2024-02-23T07:45:49;82596.70;;;17.56;23.27
36512;BME280;74732;46.796;9.822;2024-02-23T07:48:17;82595.08;;;17.03;23.32
36512;BME280;74732;46.796;9.822;2024-02-23T07:50:45;82581.65;;;17.01;23.67
36512;BME280;74732;46.796;9.822;2024-02-23T07:53:11;82570.79;;;16.63;24.19
36512;BME280;74732;46.796;9.822;2024-02-23T07:55:39;82572.49;;;16.92;24.12
36512;BME280;74732;46.796;9.822;2024-02-23T07:58:07;82571.90;;;17.50;24.27
36512;BME280;74732;46.796;9.822;2024-02-23T08:00:34;82587.87;;;17.01;24.58
36512;BME280;74732;46.796;9.822;2024-02-23T08:03:02;82611.35;;;17.38;24.70
36512;BME280;74732;46.796;9.822;2024-02-23T08:05:29;82615.81;;;17.75;25.03
36512;BME280;74732;46.796;9.822;2024-02-23T08:07:57;82632.17;;;17.38;24.82
36512;BME280;74732;46.796;9.822;2024-02-23T08:10:25;82635.39;;;17.55;24.58
36512;BME280;74732;46.796;9.822;2024-02-23T08:12:52;82630.82;;;17.14;24.33
36512;BME280;74732;46.796;9.822;2024-02-23T08:15:20;82626.79;;;16.87;24.40
36512;BME280;74732;46.796;9.822;2024-02-23T08:17:47;82623.14;;;16.82;24.32
36512;BME280;74732;46.796;9.822;2024-02-23T08:20:15;82628.32;;;17.15;24.28
36512;BME280;74732;46.796;9.822;2024-02-23T08:22:42;82637.90;;;17.52;24.19
36512;BME280;74732;46.796;9.822;2024-02-23T08:25:10;82646.67;;;16.67;23.73
36512;BME280;74732;46.796;9.822;2024-02-23T08:27:38;82640.33;;;17.19;23.93
36512;BME280;74732;46.796;9.822;2024-02-23T08:30:06;82641.01;;;16.90;24.28
36512;BME280;74732;46.796;9.822;2024-02-23T08:32:34;82633.89;;;17.41;24.68
36512;BME280;74732;46.796;9.822;2024-02-23T08:35:01;82629.45;;;17.15;24.78
36512;BME280;74732;46.796;9.822;2024-02-23T08:37:29;82622.92;;;17.02;25.19
36512;BME280;74732;46.796;9.822;2024-02-23T08:39:56;82625.27;;;17.37;24.99
36512;BME280;74732;46.796;9.822;2024-02-23T08:42:24;82628.89;;;17.74;24.67
36512;BME280;74732;46.796;9.822;2024-02-23T08:44:51;82643.13;;;17.95;24.72
36512;BME280;74732;46.796;9.822;2024-02-23T08:47:19;82644.86;;;17.78;24.53
36512;BME280;74732;46.796;9.822;2024-02-23T08:49:46;82643.75;;;17.36;23.84
36512;BME280;74732;46.796;9.822;2024-02-23T08:52:14;82641.92;;;17.50;24.23
36512;BME280;74732;46.796;9.822;2024-02-23T08:54:41;82632.22;;;18.53;24.00
